createdAt,value
2019-06-20T00:00:10.820Z,90.13
2019-06-20T00:01:10.813Z,90.03
2019-06-20T00:02:10.797Z,89.83
2019-06-20T00:03:10.795Z,89.63
2019-06-20T00:04:10.787Z,89.53
2019-06-20T00:05:10.764Z,89.73
2019-06-20T00:06:10.752Z,89.73
2019-06-20T00:07:10.751Z,89.93
2019-06-20T00:08:10.728Z,90.53
2019-06-20T00:09:10.730Z,90.73
2019-06-20T00:10:10.708Z,89.93
2019-06-20T00:11:10.696Z,90.03
2019-06-20T00:12:10.687Z,89.83
2019-06-20T00:13:10.676Z,90.53
2019-06-20T00:14:10.667Z,90.53
2019-06-20T00:15:10.670Z,89.93
2019-06-20T00:16:10.643Z,90.53
2019-06-20T00:17:10.632Z,89.53
2019-06-20T00:18:10.637Z,90.13
2019-06-20T00:19:10.612Z,89.32
2019-06-20T00:20:10.598Z,89.83
2019-06-20T00:21:10.597Z,89.83
2019-06-20T00:22:10.577Z,90.03
2019-06-20T00:23:10.567Z,90.53
2019-06-20T00:24:10.559Z,90.03
2019-06-20T00:25:10.547Z,89.83
2019-06-20T00:26:10.536Z,89.93
2019-06-20T00:27:10.543Z,89.53
2019-06-20T00:28:10.515Z,89.63
2019-06-20T00:29:10.506Z,90.23
2019-06-20T00:30:10.499Z,90.53
2019-06-20T00:31:10.481Z,89.83
2019-06-20T00:32:10.470Z,90.64
2019-06-20T00:33:10.472Z,89.93
2019-06-20T00:34:10.448Z,90.33
2019-06-20T00:35:10.437Z,89.73
2019-06-20T00:36:10.430Z,90.23
2019-06-20T00:37:10.415Z,89.83
2019-06-20T00:38:10.407Z,90.07
2019-06-20T00:39:10.409Z,90.03
2019-06-20T00:40:10.394Z,90.28
2019-06-20T00:41:10.372Z,90.98
2019-06-20T00:42:10.379Z,90.88
2019-06-20T00:43:17.333Z,91.28
2019-06-20T00:44:11.351Z,90.17
2019-06-20T00:45:10.335Z,90.58
2019-06-20T00:46:10.324Z,90.07
2019-06-20T00:47:10.311Z,89.77
2019-06-20T00:48:10.308Z,89.77
2019-06-20T00:49:10.290Z,90.17
2019-06-20T00:50:10.298Z,90.17
2019-06-20T00:51:10.266Z,90.68
2019-06-20T00:52:10.255Z,90.17
2019-06-20T00:53:10.252Z,90.17
2019-06-20T00:54:10.243Z,91.28
2019-06-20T00:55:10.222Z,90.88
2019-06-20T00:56:10.229Z,91.73
2019-06-20T00:57:10.208Z,90.72
2019-06-20T00:58:10.192Z,90.92
2019-06-20T00:59:10.184Z,90.62
2019-06-20T01:00:10.171Z,90.52
2019-06-20T01:01:10.156Z,90.92
2019-06-20T01:02:10.279Z,90.78
2019-06-20T01:03:10.137Z,90.82
2019-06-20T01:04:10.125Z,90.88
2019-06-20T01:05:10.113Z,91.22
2019-06-20T01:06:10.106Z,90.92
2019-06-20T01:07:10.093Z,91.13
2019-06-20T01:08:10.122Z,90.88
2019-06-20T01:09:10.076Z,91.02
2019-06-20T01:10:10.061Z,91.02
2019-06-20T01:11:10.051Z,90.92
2019-06-20T01:12:10.046Z,90.92
2019-06-20T01:13:10.037Z,90.92
2019-06-20T01:14:10.031Z,90.82
2019-06-20T01:15:10.010Z,90.98
2019-06-20T01:16:09.996Z,91.02
2019-06-20T01:17:09.991Z,90.72
2019-06-20T01:18:09.971Z,90.62
2019-06-20T01:19:09.965Z,90.92
2019-06-20T01:20:09.962Z,90.92
2019-06-20T01:21:09.943Z,90.62
2019-06-20T01:22:10.127Z,90.72
2019-06-20T01:23:09.917Z,91.02
2019-06-20T01:24:09.906Z,91.13
2019-06-20T01:25:09.895Z,90.72
2019-06-20T01:26:09.908Z,90.52
2019-06-20T01:27:09.876Z,90.82
2019-06-20T01:28:09.870Z,90.82
2019-06-20T01:29:09.863Z,90.62
2019-06-20T01:30:09.848Z,90.68
2019-06-20T01:31:09.834Z,91.53
2019-06-20T01:32:09.837Z,91.42
2019-06-20T01:33:09.812Z,90.72
2019-06-20T01:34:09.824Z,90.52
2019-06-20T01:35:09.791Z,90.42
2019-06-20T01:36:09.779Z,90.72
2019-06-20T01:37:09.766Z,90.72
2019-06-20T01:38:09.766Z,91.22
2019-06-20T01:39:09.749Z,91.13
2019-06-20T01:40:09.735Z,90.72
2019-06-20T01:41:09.743Z,90.52
2019-06-20T01:42:09.716Z,91.22
2019-06-20T01:43:09.705Z,90.62
2019-06-20T01:44:09.704Z,90.28
2019-06-20T01:45:09.680Z,90.78
2019-06-20T01:46:09.670Z,90.37
2019-06-20T01:47:09.665Z,90.78
2019-06-20T01:48:09.649Z,90.78
2019-06-20T01:49:09.644Z,91.38
2019-06-20T01:50:09.647Z,90.68
2019-06-20T01:51:09.618Z,90.78
2019-06-20T01:52:09.607Z,90.68
2019-06-20T01:53:09.596Z,91.58
2019-06-20T01:54:09.585Z,90.98
2019-06-20T01:55:09.576Z,91.58
2019-06-20T01:56:09.572Z,91.18
2019-06-20T01:57:09.552Z,90.98
2019-06-20T01:58:09.543Z,90.28
2019-06-20T01:59:09.529Z,90.17
2019-06-20T02:00:09.555Z,90.58
2019-06-20T02:01:09.509Z,89.87
2019-06-20T02:02:09.508Z,90.07
2019-06-20T02:03:09.490Z,89.77
2019-06-20T02:04:09.477Z,90.48
2019-06-20T02:05:09.490Z,89.87
2019-06-20T02:06:09.454Z,90.68
2019-06-20T02:07:09.444Z,91.28
2019-06-20T02:08:09.446Z,90.17
2019-06-20T02:09:09.423Z,91.18
2019-06-20T02:10:09.414Z,90.88
2019-06-20T02:11:09.403Z,90.88
2019-06-20T02:12:09.390Z,90.68
2019-06-20T02:13:09.385Z,90.98
2019-06-20T02:14:09.389Z,90.78
2019-06-20T02:15:09.357Z,90.84
2019-06-20T02:16:09.348Z,90.03
2019-06-20T02:17:09.341Z,90.84
2019-06-20T02:18:09.326Z,89.83
2019-06-20T02:19:09.319Z,90.73
2019-06-20T02:20:09.314Z,90.13
2019-06-20T02:21:09.296Z,89.83
2019-06-20T02:22:09.288Z,89.73
2019-06-20T02:23:09.275Z,90.13
2019-06-20T02:24:09.264Z,89.93
2019-06-20T02:25:09.251Z,90.09
2019-06-20T02:26:09.255Z,89.73
2019-06-20T02:27:09.233Z,89.23
2019-06-20T02:28:09.220Z,89.73
2019-06-20T02:29:09.208Z,89.63
2019-06-20T02:30:09.200Z,90.13
2019-06-20T02:31:09.188Z,89.83
2019-06-20T02:32:09.195Z,89.99
2019-06-20T02:33:09.166Z,90.59
2019-06-20T02:34:09.157Z,89.08
2019-06-20T02:35:09.154Z,89.48
2019-06-20T02:36:09.170Z,89.99
2019-06-20T02:37:09.139Z,89.93
2019-06-20T02:38:09.133Z,90.39
2019-06-20T02:39:09.103Z,89.93
2019-06-20T02:40:09.094Z,90.49
2019-06-20T02:41:09.082Z,90.59
2019-06-20T02:42:09.076Z,90.09
2019-06-20T02:43:09.060Z,89.08
2019-06-20T02:44:28.456Z,89.79
2019-06-20T02:45:10.038Z,90.69
2019-06-20T02:46:09.027Z,91.24
2019-06-20T02:47:09.022Z,90.99
2019-06-20T02:48:09.011Z,91.04
2019-06-20T02:49:08.997Z,90.64
2019-06-20T02:50:09.001Z,90.79
2019-06-20T02:51:08.978Z,91.19
2019-06-20T02:52:08.966Z,89.99
2019-06-20T02:53:08.954Z,90.19
2019-06-20T02:54:08.943Z,91.14
2019-06-20T02:55:08.931Z,91.19
2019-06-20T02:56:08.943Z,91.04
2019-06-20T02:57:08.909Z,90.13
2019-06-20T02:58:08.903Z,90.59
2019-06-20T02:59:08.891Z,90.89
2019-06-20T03:00:08.877Z,90.89
2019-06-20T03:01:08.869Z,90.94
2019-06-20T03:02:08.867Z,89.79
2019-06-20T03:03:08.846Z,90.59
2019-06-20T03:04:08.850Z,89.83
2019-06-20T03:05:08.823Z,90.13
2019-06-20T03:06:08.811Z,89.99
2019-06-20T03:07:08.811Z,90.64
2019-06-20T03:08:08.814Z,90.73
2019-06-20T03:09:08.783Z,90.23
2019-06-20T03:10:08.770Z,90.64
2019-06-20T03:11:08.760Z,90.64
2019-06-20T03:12:08.754Z,91.14
2019-06-20T03:13:09.548Z,90.59
2019-06-20T03:14:08.741Z,90.79
2019-06-20T03:15:08.725Z,90.89
2019-06-20T03:16:08.706Z,90.69
2019-06-20T03:17:08.696Z,90.89
2019-06-20T03:18:08.688Z,90.49
2019-06-20T03:19:08.697Z,90.09
2019-06-20T03:20:08.698Z,90.19
2019-06-20T03:21:08.655Z,90.19
2019-06-20T03:22:08.641Z,91.19
2019-06-20T03:23:08.633Z,91.39
2019-06-20T03:24:08.622Z,90.89
2019-06-20T03:25:08.613Z,90.59
2019-06-20T03:26:08.612Z,89.99
2019-06-20T03:27:08.592Z,90.09
2019-06-20T03:28:08.581Z,89.99
2019-06-20T03:29:08.567Z,89.99
2019-06-20T03:30:08.559Z,90.39
2019-06-20T03:31:08.551Z,90.59
2019-06-20T03:32:08.550Z,90.49
2019-06-20T03:33:08.528Z,89.99
2019-06-20T03:34:08.517Z,90.59
2019-06-20T03:35:08.503Z,90.59
2019-06-20T03:36:08.505Z,89.89
2019-06-20T03:37:08.482Z,90.69
2019-06-20T03:38:08.491Z,90.89
2019-06-20T03:39:08.462Z,90.84
2019-06-20T03:40:08.455Z,90.64
2019-06-20T03:41:08.439Z,90.84
2019-06-20T03:42:08.435Z,90.73
2019-06-20T03:43:08.423Z,90.53
2019-06-20T03:44:08.419Z,91.04
2019-06-20T03:45:08.408Z,91.85
2019-06-20T03:46:08.388Z,91.14
2019-06-20T03:47:08.375Z,91.94
2019-06-20T03:48:08.374Z,91.34
2019-06-20T03:49:08.356Z,90.84
2019-06-20T03:50:08.354Z,91.34
2019-06-20T03:51:08.364Z,91.24
2019-06-20T03:52:08.326Z,91.04
2019-06-20T03:53:08.318Z,91.14
2019-06-20T03:54:08.300Z,91.04
2019-06-20T03:55:08.293Z,91.24
2019-06-20T03:56:08.292Z,91.04
2019-06-20T03:57:08.277Z,91.14
2019-06-20T03:58:08.265Z,90.53
2019-06-20T03:59:08.250Z,90.64
2019-06-20T04:00:08.263Z,90.33
2019-06-20T04:01:08.348Z,90.64
2019-06-20T04:02:08.227Z,90.84
2019-06-20T04:03:08.211Z,90.64
2019-06-20T04:04:08.197Z,90.64
2019-06-20T04:05:08.188Z,90.53
2019-06-20T04:06:08.176Z,91.24
2019-06-20T04:07:08.172Z,90.73
2019-06-20T04:08:08.167Z,90.53
2019-06-20T04:09:08.142Z,90.94
2019-06-20T04:10:08.131Z,91.24
2019-06-20T04:11:08.126Z,91.04
2019-06-20T04:12:08.112Z,90.73
2019-06-20T04:13:08.101Z,90.53
2019-06-20T04:14:08.108Z,90.53
2019-06-20T04:15:18.707Z,90.73
2019-06-20T04:16:09.075Z,90.73
2019-06-20T04:17:08.060Z,90.64
2019-06-20T04:18:08.046Z,90.64
2019-06-20T04:19:08.048Z,90.64
2019-06-20T04:20:08.035Z,91.54
2019-06-20T04:21:08.045Z,90.64
2019-06-20T04:22:08.011Z,90.53
2019-06-20T04:23:07.995Z,90.64
2019-06-20T04:24:07.987Z,90.84
2019-06-20T04:25:07.972Z,91.14
2019-06-20T04:26:07.979Z,89.83
2019-06-20T04:27:07.961Z,91.34
2019-06-20T04:28:07.941Z,89.69
2019-06-20T04:29:07.929Z,90.09
2019-06-20T04:30:07.923Z,89.48
2019-06-20T04:31:07.906Z,89.28
2019-06-20T04:32:07.914Z,89.69
2019-06-20T04:33:07.894Z,89.18
2019-06-20T04:34:07.881Z,89.69
2019-06-20T04:35:07.865Z,89.59
2019-06-20T04:36:07.895Z,89.59
2019-06-20T04:37:07.846Z,89.28
2019-06-20T04:38:07.906Z,89.89
2019-06-20T04:39:18.610Z,90.09
2019-06-20T04:40:08.813Z,89.79
2019-06-20T04:41:07.803Z,88.98
2019-06-20T04:42:07.796Z,89.04
2019-06-20T04:43:07.782Z,89.14
2019-06-20T04:44:07.783Z,89.44
2019-06-20T04:45:07.781Z,90.05
2019-06-20T04:46:07.752Z,88.94
2019-06-20T04:47:07.761Z,89.54
2019-06-20T04:48:07.732Z,89.64
2019-06-20T04:49:07.717Z,89.64
2019-06-20T04:50:07.724Z,89.14
2019-06-20T04:51:07.699Z,88.94
2019-06-20T04:52:07.689Z,89.64
2019-06-20T04:53:07.675Z,89.24
2019-06-20T04:54:07.668Z,89.04
2019-06-20T04:55:07.654Z,89.24
2019-06-20T04:56:07.656Z,88.74
2019-06-20T04:57:07.631Z,88.84
2019-06-20T04:58:07.637Z,89.04
2019-06-20T04:59:07.625Z,89.04
2019-06-20T05:00:07.600Z,88.64
2019-06-20T05:01:07.589Z,88.84
2019-06-20T05:02:07.618Z,88.74
2019-06-20T05:03:07.570Z,88.74
2019-06-20T05:04:07.583Z,88.64
2019-06-20T05:05:07.553Z,88.74
2019-06-20T05:06:07.536Z,88.39
2019-06-20T05:07:07.526Z,88.09
2019-06-20T05:08:07.535Z,87.89
2019-06-20T05:09:07.509Z,88.39
2019-06-20T05:10:07.496Z,88.19
2019-06-20T05:11:07.484Z,87.99
2019-06-20T05:12:07.471Z,88.29
2019-06-20T05:13:07.461Z,88.19
2019-06-20T05:14:07.464Z,88.09
2019-06-20T05:15:07.462Z,87.99
2019-06-20T05:16:07.433Z,87.49
2019-06-20T05:17:07.509Z,87.08
2019-06-20T05:18:07.408Z,87.29
2019-06-20T05:19:07.397Z,87.19
2019-06-20T05:20:07.438Z,86.85
2019-06-20T05:21:07.382Z,86.24
2019-06-20T05:22:07.364Z,86.54
2019-06-20T05:23:07.356Z,86.04
2019-06-20T05:24:07.340Z,85.90
2019-06-20T05:25:07.331Z,85.19
2019-06-20T05:26:07.333Z,85.05
2019-06-20T05:27:07.318Z,84.45
2019-06-20T05:28:07.297Z,84.21
2019-06-20T05:29:07.289Z,83.31
2019-06-20T05:30:07.441Z,82.76
2019-06-20T05:31:07.266Z,82.46
2019-06-20T05:32:07.345Z,82.43
2019-06-20T05:33:07.251Z,81.93
2019-06-20T05:34:07.237Z,81.59
2019-06-20T05:35:07.224Z,80.98
2019-06-20T05:36:07.215Z,80.88
2019-06-20T05:37:07.204Z,80.79
2019-06-20T05:38:07.207Z,80.28
2019-06-20T05:39:07.193Z,81.38
2019-06-20T05:40:07.169Z,80.79
2019-06-20T05:41:07.161Z,81.29
2019-06-20T05:42:07.150Z,81.48
2019-06-20T05:43:07.137Z,80.42
2019-06-20T05:44:07.139Z,80.82
2019-06-20T05:45:07.127Z,81.23
2019-06-20T05:46:10.807Z,81.16
2019-06-20T05:47:12.426Z,81.87
2019-06-20T05:48:08.083Z,80.86
2019-06-20T05:49:07.077Z,80.26
2019-06-20T05:50:07.074Z,80.26
2019-06-20T05:51:07.053Z,80.76
2019-06-20T05:52:07.042Z,81.16
2019-06-20T05:53:07.030Z,81.00
2019-06-20T05:54:07.020Z,81.40
2019-06-20T05:55:07.010Z,81.90
2019-06-20T05:56:07.029Z,82.00
2019-06-20T05:57:07.027Z,82.31
2019-06-20T05:58:06.976Z,82.14
2019-06-20T05:59:06.970Z,82.04
2019-06-20T06:00:08.381Z,82.04
2019-06-20T06:01:06.954Z,81.94
2019-06-20T06:02:06.962Z,82.45
2019-06-20T06:03:07.319Z,82.45
2019-06-20T06:04:06.914Z,83.04
2019-06-20T06:05:06.966Z,83.15
2019-06-20T06:06:06.893Z,82.75
2019-06-20T06:07:06.888Z,83.45
2019-06-20T06:08:06.884Z,83.04
2019-06-20T06:09:06.898Z,83.35
2019-06-20T06:10:06.850Z,82.98
2019-06-20T06:11:06.901Z,83.39
2019-06-20T06:12:06.828Z,82.89
2019-06-20T06:13:06.816Z,83.09
2019-06-20T06:14:06.818Z,82.89
2019-06-20T06:15:07.388Z,83.49
2019-06-20T06:16:06.794Z,82.78
2019-06-20T06:17:06.780Z,83.09
2019-06-20T06:18:06.761Z,82.78
2019-06-20T06:19:06.750Z,82.89
2019-06-20T06:20:06.766Z,82.38
2019-06-20T06:21:06.734Z,82.28
2019-06-20T06:22:06.717Z,82.38
2019-06-20T06:23:06.712Z,82.78
2019-06-20T06:24:06.700Z,82.28
2019-06-20T06:25:06.696Z,82.18
2019-06-20T06:26:06.700Z,82.38
2019-06-20T06:27:06.666Z,82.28
2019-06-20T06:28:06.655Z,82.48
2019-06-20T06:29:06.650Z,82.78
2019-06-20T06:30:06.643Z,82.48
2019-06-20T06:31:06.628Z,82.48
2019-06-20T06:32:06.625Z,82.48
2019-06-20T06:33:06.605Z,82.58
2019-06-20T06:34:06.594Z,82.58
2019-06-20T06:35:06.627Z,82.22
2019-06-20T06:36:06.571Z,83.12
2019-06-20T06:37:06.563Z,82.82
2019-06-20T06:38:06.567Z,82.82
2019-06-20T06:39:06.578Z,82.92
2019-06-20T06:40:06.540Z,83.03
2019-06-20T06:41:06.516Z,82.62
2019-06-20T06:42:06.504Z,82.82
2019-06-20T06:43:06.497Z,82.82
2019-06-20T06:44:08.477Z,83.12
2019-06-20T06:45:06.474Z,83.12
2019-06-20T06:46:06.468Z,83.23
2019-06-20T06:47:06.466Z,83.63
2019-06-20T06:48:06.446Z,83.43
2019-06-20T06:49:06.431Z,83.33
2019-06-20T06:50:06.439Z,83.33
2019-06-20T06:51:06.408Z,83.33
2019-06-20T06:52:06.407Z,83.33
2019-06-20T06:53:06.385Z,82.92
2019-06-20T06:54:06.386Z,82.42
2019-06-20T06:55:06.377Z,82.52
2019-06-20T06:56:06.381Z,82.98
2019-06-20T06:57:06.343Z,82.32
2019-06-20T06:58:06.332Z,82.48
2019-06-20T06:59:06.323Z,82.58
2019-06-20T07:00:06.438Z,81.88
2019-06-20T07:01:10.150Z,82.38
2019-06-20T07:02:06.306Z,81.04
2019-06-20T07:03:06.283Z,81.44
2019-06-20T07:04:06.271Z,79.93
2019-06-20T07:05:06.259Z,80.04
2019-06-20T07:06:06.256Z,79.73
2019-06-20T07:07:06.241Z,79.43
2019-06-20T07:08:06.248Z,80.33
2019-06-20T07:09:06.226Z,79.99
2019-06-20T07:10:06.209Z,79.90
2019-06-20T07:11:06.205Z,79.69
2019-06-20T07:12:06.203Z,78.69
2019-06-20T07:13:06.181Z,78.89
2019-06-20T07:14:06.173Z,79.19
2019-06-20T07:15:06.157Z,79.16
2019-06-20T07:16:06.152Z,78.99
2019-06-20T07:17:06.133Z,78.59
2019-06-20T07:18:06.131Z,79.16
2019-06-20T07:19:06.112Z,79.25
2019-06-20T07:20:06.121Z,78.05
2019-06-20T07:21:06.087Z,77.65
2019-06-20T07:22:06.078Z,77.45
2019-06-20T07:23:06.074Z,77.25
2019-06-20T07:24:06.057Z,77.35
2019-06-20T07:25:06.048Z,77.05
2019-06-20T07:26:06.042Z,76.54
2019-06-20T07:27:06.024Z,76.54
2019-06-20T07:28:06.018Z,76.75
2019-06-20T07:29:06.003Z,76.21
2019-06-20T07:30:06.004Z,75.10
2019-06-20T07:31:05.981Z,74.47
2019-06-20T07:32:05.982Z,75.07
2019-06-20T07:33:06.010Z,74.37
2019-06-20T07:34:05.952Z,74.87
2019-06-20T07:35:05.965Z,73.97
2019-06-20T07:36:05.930Z,73.97
2019-06-20T07:37:05.918Z,73.73
2019-06-20T07:38:05.943Z,73.83
2019-06-20T07:39:05.901Z,73.53
2019-06-20T07:40:05.885Z,73.43
2019-06-20T07:41:05.883Z,73.23
2019-06-20T07:42:05.866Z,72.80
2019-06-20T07:43:05.857Z,71.59
2019-06-20T07:44:05.863Z,71.80
2019-06-20T07:45:05.834Z,70.59
2019-06-20T07:46:05.905Z,71.89
2019-06-20T07:47:17.049Z,71.86
2019-06-20T07:48:06.802Z,70.62
2019-06-20T07:49:05.793Z,70.19
2019-06-20T07:50:05.797Z,69.79
2019-06-20T07:51:05.767Z,68.79
2019-06-20T07:52:05.757Z,68.56
2019-06-20T07:53:05.748Z,68.86
2019-06-20T07:54:05.754Z,68.63
2019-06-20T07:55:05.729Z,68.63
2019-06-20T07:56:09.292Z,68.43
2019-06-20T07:57:05.707Z,68.49
2019-06-20T07:58:05.712Z,68.89
2019-06-20T07:59:05.686Z,68.40
2019-06-20T08:00:05.679Z,67.76
2019-06-20T08:01:05.664Z,68.16
2019-06-20T08:02:05.662Z,67.96
2019-06-20T08:03:05.639Z,68.16
2019-06-20T08:04:05.636Z,67.26
2019-06-20T08:05:05.619Z,66.56
2019-06-20T08:06:05.613Z,67.46
2019-06-20T08:07:05.603Z,66.60
2019-06-20T08:08:05.605Z,68.19
2019-06-20T08:09:05.592Z,67.90
2019-06-20T08:10:05.568Z,67.60
2019-06-20T08:11:05.558Z,67.33
2019-06-20T08:12:05.554Z,68.33
2019-06-20T08:13:05.553Z,68.36
2019-06-20T08:14:05.534Z,68.43
2019-06-20T08:15:15.081Z,69.46
2019-06-20T08:16:06.502Z,68.86
2019-06-20T08:17:05.492Z,69.16
2019-06-20T08:18:05.516Z,68.76
2019-06-20T08:19:05.470Z,69.06
2019-06-20T08:20:05.476Z,68.29
2019-06-20T08:21:05.453Z,68.69
2019-06-20T08:22:05.453Z,69.69
2019-06-20T08:23:05.429Z,69.49
2019-06-20T08:24:05.422Z,70.19
2019-06-20T08:25:05.483Z,70.43
2019-06-20T08:26:05.409Z,70.12
2019-06-20T08:27:06.657Z,71.06
2019-06-20T08:28:06.514Z,70.46
2019-06-20T08:29:18.713Z,71.46
2019-06-20T08:30:07.286Z,71.96
2019-06-20T08:31:06.713Z,72.09
2019-06-20T08:32:06.537Z,72.00
2019-06-20T08:33:10.325Z,71.80
2019-06-20T08:34:06.592Z,72.00
2019-06-20T08:35:06.415Z,71.80
2019-06-20T08:36:06.555Z,72.09
2019-06-20T08:37:06.395Z,71.59
2019-06-20T08:38:07.075Z,72.16
2019-06-20T08:39:06.494Z,72.39
2019-06-20T08:40:06.468Z,72.89
2019-06-20T08:41:06.468Z,72.89
2019-06-20T08:42:06.386Z,71.86
2019-06-20T08:43:06.237Z,72.66
2019-06-20T08:44:06.159Z,72.56
2019-06-20T08:45:06.114Z,71.76
2019-06-20T08:46:10.072Z,71.92
2019-06-20T08:47:06.181Z,71.73
2019-06-20T08:48:05.166Z,71.92
2019-06-20T08:49:05.783Z,69.73
2019-06-20T08:50:06.068Z,70.62
2019-06-20T08:51:06.472Z,70.73
2019-06-20T08:52:05.597Z,70.73
2019-06-20T08:53:05.823Z,70.32
2019-06-20T08:54:05.451Z,70.12
2019-06-20T08:55:05.457Z,71.33
2019-06-20T08:56:05.499Z,71.59
2019-06-20T08:57:05.852Z,70.29
2019-06-20T08:58:05.606Z,70.09
2019-06-20T08:59:05.054Z,69.69
2019-06-20T09:03:05.010Z,70.29
2019-06-20T09:04:04.997Z,70.49
2019-06-20T09:05:04.998Z,71.19
2019-06-20T09:06:04.977Z,71.49
2019-06-20T09:08:04.968Z,70.62
2019-06-20T09:09:04.945Z,71.73
2019-06-20T09:10:04.933Z,71.76
2019-06-20T09:11:04.926Z,71.16
2019-06-20T09:12:05.166Z,72.09
2019-06-20T09:13:04.903Z,72.89
2019-06-20T09:14:04.917Z,73.66
2019-06-20T09:15:04.880Z,74.40
2019-06-20T09:16:04.871Z,74.20
2019-06-20T09:17:04.867Z,74.60
2019-06-20T09:18:04.850Z,76.24
2019-06-20T09:19:04.843Z,76.10
2019-06-20T09:20:04.841Z,76.80
2019-06-20T09:21:04.816Z,76.74
2019-06-20T09:22:05.070Z,76.43
2019-06-20T09:23:04.794Z,75.34
2019-06-20T09:24:04.783Z,74.23
2019-06-20T09:25:04.788Z,74.57
2019-06-20T09:26:04.777Z,74.77
2019-06-20T09:27:04.753Z,75.67
2019-06-20T09:28:04.752Z,75.97
2019-06-20T09:29:04.750Z,76.98
2019-06-20T09:30:04.736Z,76.47
2019-06-20T09:31:04.713Z,76.43
2019-06-20T09:32:04.747Z,76.64
2019-06-20T09:33:04.690Z,76.43
2019-06-20T09:34:05.471Z,76.10
2019-06-20T09:35:04.673Z,75.90
2019-06-20T09:36:04.722Z,76.60
2019-06-20T09:37:04.646Z,75.87
2019-06-20T09:38:04.651Z,75.63
2019-06-20T09:39:04.624Z,74.79
2019-06-20T09:40:04.615Z,74.09
2019-06-20T09:41:04.602Z,74.29
2019-06-20T09:42:04.593Z,73.06
2019-06-20T09:43:04.582Z,71.72
2019-06-20T09:44:04.602Z,71.92
2019-06-20T09:45:04.559Z,71.92
2019-06-20T09:46:04.558Z,72.02
2019-06-20T09:47:04.547Z,71.03
2019-06-20T09:48:04.527Z,70.92
2019-06-20T09:49:04.519Z,70.32
2019-06-20T09:50:04.521Z,70.72
2019-06-20T09:51:04.495Z,71.52
2019-06-20T09:52:04.485Z,70.96
2019-06-20T09:53:04.474Z,71.46
2019-06-20T09:54:04.466Z,71.56
2019-06-20T09:55:04.464Z,71.76
2019-06-20T09:56:04.475Z,71.59
2019-06-20T09:57:04.431Z,71.26
2019-06-20T09:58:04.434Z,72.09
2019-06-20T09:59:04.416Z,71.89
2019-06-20T10:00:10.109Z,72.19
2019-06-20T10:01:05.401Z,71.86
2019-06-20T10:02:04.381Z,71.86
2019-06-20T10:03:04.367Z,71.86
2019-06-20T10:04:04.355Z,70.96
2019-06-20T10:05:04.344Z,70.83
2019-06-20T10:06:13.429Z,70.42
2019-06-20T10:07:05.340Z,71.42
2019-06-20T10:08:04.314Z,70.62
2019-06-20T10:09:04.307Z,70.12
2019-06-20T10:10:04.292Z,69.99
2019-06-20T10:11:04.283Z,69.99
2019-06-20T10:12:04.280Z,68.76
2019-06-20T10:13:04.283Z,68.16
2019-06-20T10:14:04.251Z,68.16
2019-06-20T10:15:04.260Z,67.93
2019-06-20T10:16:04.237Z,67.80
2019-06-20T10:17:04.223Z,67.30
2019-06-20T10:18:04.211Z,67.27
2019-06-20T10:19:04.211Z,67.17
2019-06-20T10:20:04.191Z,67.57
2019-06-20T10:21:04.178Z,67.27
2019-06-20T10:22:04.171Z,67.43
2019-06-20T10:23:04.159Z,66.34
2019-06-20T10:24:04.146Z,66.24
2019-06-20T10:25:04.146Z,65.51
2019-06-20T10:26:04.126Z,64.51
2019-06-20T10:27:04.135Z,64.42
2019-06-20T10:28:04.103Z,63.22
2019-06-20T10:29:04.093Z,62.62
2019-06-20T10:30:13.857Z,63.69
2019-06-20T10:31:05.083Z,63.52
2019-06-20T10:32:04.079Z,63.19
2019-06-20T10:33:04.054Z,62.59
2019-06-20T10:34:04.042Z,62.79
2019-06-20T10:35:04.031Z,62.10
2019-06-20T10:36:04.020Z,62.69
2019-06-20T10:37:04.044Z,63.39
2019-06-20T10:38:03.999Z,63.09
2019-06-20T10:39:03.995Z,63.39
2019-06-20T10:40:03.987Z,63.69
2019-06-20T10:41:03.971Z,62.99
2019-06-20T10:42:03.967Z,63.32
2019-06-20T10:43:03.962Z,63.62
2019-06-20T10:44:03.940Z,64.31
2019-06-20T10:45:03.963Z,63.82
2019-06-20T10:46:03.924Z,63.82
2019-06-20T10:47:03.910Z,64.15
2019-06-20T10:48:03.895Z,63.95
2019-06-20T10:49:03.903Z,64.34
2019-06-20T10:50:03.878Z,63.95
2019-06-20T10:51:03.864Z,64.78
2019-06-20T10:52:03.854Z,64.94
2019-06-20T10:53:03.847Z,64.84
2019-06-20T10:54:03.875Z,64.34
2019-06-20T10:55:03.864Z,63.98
2019-06-20T10:56:03.813Z,63.15
2019-06-20T10:57:03.803Z,63.38
2019-06-20T10:58:03.800Z,62.68
2019-06-20T10:59:03.794Z,64.45
2019-06-20T11:00:03.772Z,64.15
2019-06-20T11:01:03.786Z,63.75
2019-06-20T11:02:06.460Z,63.35
2019-06-20T11:03:03.739Z,63.65
2019-06-20T11:04:03.730Z,63.55
2019-06-20T11:05:03.721Z,64.07
2019-06-20T11:06:03.709Z,62.98
2019-06-20T11:07:03.714Z,63.41
2019-06-20T11:08:03.687Z,64.31
2019-06-20T11:09:03.675Z,64.21
2019-06-20T11:10:03.669Z,63.94
2019-06-20T11:11:03.682Z,65.53
2019-06-20T11:12:03.658Z,65.83
2019-06-20T11:13:03.646Z,65.94
2019-06-20T11:14:03.632Z,66.43
2019-06-20T11:15:03.613Z,65.34
2019-06-20T11:16:03.602Z,65.73
2019-06-20T11:17:03.593Z,65.94
2019-06-20T11:18:03.598Z,66.24
2019-06-20T11:19:03.584Z,66.43
2019-06-20T11:20:03.561Z,66.60
2019-06-20T11:21:03.549Z,66.10
2019-06-20T11:22:03.554Z,66.40
2019-06-20T11:23:03.526Z,66.10
2019-06-20T11:24:03.525Z,65.57
2019-06-20T11:25:03.520Z,64.28
2019-06-20T11:26:03.496Z,63.98
2019-06-20T11:27:03.485Z,65.17
2019-06-20T11:28:03.478Z,64.45
2019-06-20T11:29:03.491Z,63.85
2019-06-20T11:30:03.698Z,64.04
2019-06-20T11:31:03.458Z,64.15
2019-06-20T11:32:03.435Z,61.96
2019-06-20T11:33:03.427Z,61.46
2019-06-20T11:34:03.412Z,61.93
2019-06-20T11:35:03.424Z,61.03
2019-06-20T11:36:03.388Z,61.23
2019-06-20T11:37:03.391Z,61.83
2019-06-20T11:38:03.374Z,61.33
2019-06-20T11:39:03.357Z,61.33
2019-06-20T11:40:03.348Z,61.43
2019-06-20T11:41:03.334Z,61.53
2019-06-20T11:42:03.328Z,61.13
2019-06-20T11:43:03.479Z,60.83
2019-06-20T11:44:03.309Z,61.46
2019-06-20T11:45:03.334Z,62.05
2019-06-20T11:46:03.285Z,61.99
2019-06-20T11:47:03.325Z,63.18
2019-06-20T11:48:03.263Z,63.28
2019-06-20T11:49:03.262Z,63.28
2019-06-20T11:50:03.263Z,62.29
2019-06-20T11:51:03.234Z,61.88
2019-06-20T11:52:03.222Z,61.66
2019-06-20T11:53:03.224Z,60.36
2019-06-20T11:54:03.200Z,61.09
2019-06-20T11:55:03.204Z,60.89
2019-06-20T11:56:03.187Z,60.26
2019-06-20T11:57:03.181Z,59.27
2019-06-20T11:58:03.160Z,60.39
2019-06-20T11:59:03.154Z,61.69
2019-06-20T12:00:03.139Z,61.55
2019-06-20T12:01:04.219Z,60.86
2019-06-20T12:02:03.120Z,60.26
2019-06-20T12:03:03.108Z,61.06
2019-06-20T12:04:03.098Z,59.36
2019-06-20T12:05:03.083Z,59.86
2019-06-20T12:06:03.099Z,60.36
2019-06-20T12:07:03.077Z,60.46
2019-06-20T12:08:03.063Z,60.56
2019-06-20T12:09:03.043Z,60.19
2019-06-20T12:10:03.037Z,60.29
2019-06-20T12:11:03.030Z,60.09
2019-06-20T12:12:03.016Z,60.16
2019-06-20T12:13:03.028Z,60.49
2019-06-20T12:14:03.006Z,60.16
2019-06-20T12:15:02.985Z,60.06
2019-06-20T12:16:02.971Z,59.56
2019-06-20T12:17:02.959Z,59.27
2019-06-20T12:18:02.951Z,59.59
2019-06-20T12:19:02.951Z,59.69
2019-06-20T12:20:02.929Z,60.49
2019-06-20T12:21:02.951Z,60.96
2019-06-20T12:22:02.909Z,59.56
2019-06-20T12:23:02.897Z,59.56
2019-06-20T12:24:02.888Z,59.36
2019-06-20T12:25:02.885Z,59.06
2019-06-20T12:26:02.868Z,57.87
2019-06-20T12:27:02.858Z,57.67
2019-06-20T12:28:02.860Z,58.54
2019-06-20T12:29:02.845Z,58.17
2019-06-20T12:30:02.827Z,58.87
2019-06-20T12:31:18.250Z,58.87
2019-06-20T12:32:03.804Z,58.76
2019-06-20T12:33:02.806Z,58.37
2019-06-20T12:34:02.799Z,59.47
2019-06-20T12:35:02.773Z,58.57
2019-06-20T12:36:02.768Z,59.17
2019-06-20T12:37:02.767Z,59.86
2019-06-20T12:38:02.740Z,59.23
2019-06-20T12:39:02.729Z,58.57
2019-06-20T12:40:02.721Z,58.94
2019-06-20T12:41:02.711Z,59.14
2019-06-20T12:42:02.717Z,58.94
2019-06-20T12:43:02.700Z,57.64
2019-06-20T12:44:02.675Z,58.44
2019-06-20T12:45:02.674Z,58.31
2019-06-20T12:46:02.655Z,58.22
2019-06-20T12:47:02.653Z,58.58
2019-06-20T12:48:02.640Z,57.32
2019-06-20T12:49:02.683Z,57.59
2019-06-20T12:50:02.613Z,55.33
2019-06-20T12:51:02.600Z,55.63
2019-06-20T12:52:02.606Z,57.02
2019-06-20T12:53:02.592Z,57.22
2019-06-20T12:54:02.572Z,57.22
2019-06-20T12:55:02.576Z,57.62
2019-06-20T12:56:02.549Z,57.62